createdAt,value
2024-02-19T00:02:28.212Z,100485.27
2024-02-19T00:05:00.291Z,100483.16
2024-02-19T00:07:33.481Z,100473.00
2024-02-19T00:10:08.089Z,100471.05
2024-02-19T00:12:40.546Z,100470.30
2024-02-19T00:15:13.904Z,100464.05
2024-02-19T00:17:47.727Z,100461.72
2024-02-19T00:20:20.120Z,100456.33
2024-02-19T00:22:52.249Z,100453.05
2024-02-19T00:25:25.162Z,100451.61
2024-02-19T00:27:57.172Z,100452.64
2024-02-19T00:30:29.320Z,100441.98
2024-02-19T00:33:02.716Z,100436.08
2024-02-19T00:35:35.102Z,100430.73
2024-02-19T00:38:07.444Z,100433.13
2024-02-19T00:40:41.451Z,100431.48
2024-02-19T00:43:13.741Z,100422.81
2024-02-19T00:45:45.754Z,100421.48
2024-02-19T00:48:17.950Z,100418.14
2024-02-19T00:50:50.067Z,100411.16
2024-02-19T00:53:22.395Z,100405.15
2024-02-19T00:55:54.758Z,100404.36
2024-02-19T00:58:26.920Z,100401.51
2024-02-19T01:00:59.844Z,100396.19
2024-02-19T01:03:32.121Z,100391.23
2024-02-19T01:06:04.293Z,100384.86
2024-02-19T01:08:36.418Z,100380.49
2024-02-19T01:11:08.553Z,100375.10
2024-02-19T01:13:42.881Z,100370.27
2024-02-19T01:16:15.174Z,100368.30
2024-02-19T01:18:47.294Z,100368.40
2024-02-19T01:21:20.520Z,100367.77
2024-02-19T01:23:52.620Z,100358.19
2024-02-19T01:26:24.716Z,100355.34
2024-02-19T01:28:56.908Z,100347.73
2024-02-19T01:31:33.125Z,100343.84
2024-02-19T01:34:06.571Z,100340.56
2024-02-19T01:36:38.823Z,100335.44
2024-02-19T01:39:10.876Z,100329.37
2024-02-19T01:41:43.053Z,100324.73
2024-02-19T01:44:15.216Z,100321.84
2024-02-19T01:46:48.276Z,100320.20
2024-02-19T01:49:21.615Z,100316.42
2024-02-19T01:51:54.893Z,100312.23
2024-02-19T01:54:28.056Z,100305.90
2024-02-19T01:57:00.323Z,100305.00
2024-02-19T01:59:34.837Z,100299.73
2024-02-19T02:02:07.496Z,100292.00
2024-02-19T02:04:40.805Z,100286.09
2024-02-19T02:07:13.176Z,100285.48
2024-02-19T02:09:47.337Z,100277.45
2024-02-19T02:12:19.677Z,100266.32
2024-02-19T02:14:51.764Z,100266.73
2024-02-19T02:17:23.943Z,100258.06
2024-02-19T02:19:56.238Z,100248.84
2024-02-19T02:22:28.452Z,100249.53
2024-02-19T02:25:02.995Z,100252.17
2024-02-19T02:27:35.268Z,100247.30
2024-02-19T02:30:09.927Z,100245.91
2024-02-19T02:32:42.137Z,100250.33
2024-02-19T02:35:16.368Z,100242.16
2024-02-19T02:37:48.699Z,100241.54
2024-02-19T02:40:23.577Z,100237.54
2024-02-19T02:42:55.822Z,100229.72
2024-02-19T02:45:28.111Z,100222.44
2024-02-19T02:48:00.300Z,100223.79
2024-02-19T02:50:32.693Z,100216.97
2024-02-19T02:53:05.007Z,100213.89
2024-02-19T02:55:37.266Z,100210.02
2024-02-19T02:58:09.609Z,100206.86
2024-02-19T03:00:41.927Z,100197.77
2024-02-19T03:03:14.059Z,100193.16
2024-02-19T03:05:46.375Z,100192.31
2024-02-19T03:08:18.700Z,100190.38
2024-02-19T03:10:50.993Z,100185.72
2024-02-19T03:13:23.136Z,100180.94
2024-02-19T03:15:55.438Z,100173.83
2024-02-19T03:18:28.000Z,100170.58
2024-02-19T03:21:00.246Z,100164.02
2024-02-19T03:23:32.458Z,100158.39
2024-02-19T03:26:04.989Z,100155.83
2024-02-19T03:28:37.094Z,100152.13
2024-02-19T03:31:09.403Z,100153.48
2024-02-19T03:33:41.570Z,100151.04
2024-02-19T03:36:14.021Z,100148.69
2024-02-19T03:38:46.148Z,100140.50
2024-02-19T03:41:18.219Z,100130.82
2024-02-19T03:43:50.680Z,100130.64
2024-02-19T03:46:22.928Z,100138.49
2024-02-19T03:48:56.420Z,100135.46
2024-02-19T03:51:29.128Z,100128.31
2024-02-19T03:54:01.342Z,100122.73
2024-02-19T03:56:33.594Z,100124.70
2024-02-19T03:59:06.343Z,100127.06
2024-02-19T04:01:38.979Z,100123.41
2024-02-19T04:04:11.457Z,100122.34
2024-02-19T04:06:43.743Z,100126.66
2024-02-19T04:09:15.980Z,100119.16
2024-02-19T04:11:48.186Z,100119.99
2024-02-19T04:14:20.390Z,100117.77
2024-02-19T04:16:52.649Z,100118.27
2024-02-19T04:19:25.181Z,100115.73
2024-02-19T04:21:57.483Z,100108.88
2024-02-19T04:24:30.165Z,100106.36
2024-02-19T04:27:02.259Z,100100.80
2024-02-19T04:29:34.402Z,100098.05
2024-02-19T04:32:07.248Z,100096.00
2024-02-19T04:34:40.892Z,100092.14
2024-02-19T04:37:13.395Z,100089.73
2024-02-19T04:39:45.572Z,100089.56
2024-02-19T04:42:18.648Z,100084.44
2024-02-19T04:44:51.257Z,100076.59
2024-02-19T04:47:23.467Z,100075.55
2024-02-19T04:49:55.831Z,100073.65
2024-02-19T04:52:28.211Z,100071.02
2024-02-19T04:55:00.727Z,100065.18
2024-02-19T04:57:32.976Z,100060.44
2024-02-19T05:00:05.658Z,100062.54
2024-02-19T05:02:37.831Z,100060.41
2024-02-19T05:05:11.633Z,100059.36
2024-02-19T05:07:43.902Z,100057.39
2024-02-19T05:10:16.221Z,100058.71
2024-02-19T05:12:48.400Z,100060.73
2024-02-19T05:15:20.513Z,100056.09
2024-02-19T05:17:52.876Z,100050.91
2024-02-19T05:20:25.918Z,100052.83
2024-02-19T05:22:57.892Z,100051.56
2024-02-19T05:25:30.199Z,100051.04
2024-02-19T05:28:03.021Z,100049.95
2024-02-19T05:30:35.205Z,100045.46
2024-02-19T05:33:09.081Z,100041.48
2024-02-19T05:35:41.335Z,100038.46
2024-02-19T05:38:13.899Z,100034.00
2024-02-19T05:40:46.517Z,100030.65
2024-02-19T05:43:18.740Z,100031.48
2024-02-19T05:45:50.917Z,100030.48
2024-02-19T05:48:23.526Z,100030.50
2024-02-19T05:50:55.773Z,100028.50
2024-02-19T05:53:27.984Z,100026.61
2024-02-19T05:56:00.146Z,100027.66
2024-02-19T05:58:32.209Z,100024.19
2024-02-19T06:01:04.525Z,100022.29
2024-02-19T06:03:37.821Z,100017.71
2024-02-19T06:06:10.024Z,100014.18
2024-02-19T06:08:42.143Z,100008.58
2024-02-19T06:11:14.387Z,100010.15
2024-02-19T06:13:46.622Z,100008.34
2024-02-19T06:16:18.927Z,100002.73
2024-02-19T06:18:51.383Z,100003.42
2024-02-19T06:21:23.586Z,99998.67
2024-02-19T06:23:55.942Z,99999.10
2024-02-19T06:26:27.974Z,99999.95
2024-02-19T06:29:00.242Z,99995.23
2024-02-19T06:31:32.339Z,99988.84
2024-02-19T06:34:04.709Z,99984.54
2024-02-19T06:36:37.017Z,99984.94
2024-02-19T06:39:09.387Z,99983.91
2024-02-19T06:41:41.511Z,99979.06
2024-02-19T06:44:13.599Z,99978.48
2024-02-19T06:46:45.642Z,99974.82
2024-02-19T06:49:17.929Z,99975.38
2024-02-19T06:51:50.059Z,99978.33
2024-02-19T06:54:22.269Z,99977.36
2024-02-19T06:56:54.411Z,99979.98
2024-02-19T06:59:26.681Z,99978.90
2024-02-19T07:01:59.519Z,99980.34
2024-02-19T07:04:36.167Z,99978.29
2024-02-19T07:07:10.447Z,99978.20
2024-02-19T07:09:42.960Z,99982.16
2024-02-19T07:12:15.727Z,99983.50
2024-02-19T07:14:48.018Z,99977.67
2024-02-19T07:17:20.555Z,99974.20
2024-02-19T07:19:52.804Z,99966.98
2024-02-19T07:22:25.356Z,99961.31
2024-02-19T07:25:06.235Z,99961.29
2024-02-19T07:27:46.217Z,99963.58
2024-02-19T07:30:18.995Z,99954.54
2024-02-19T07:32:51.179Z,99953.15
2024-02-19T07:35:23.319Z,99949.08
2024-02-19T07:37:55.622Z,99945.02
2024-02-19T07:40:27.902Z,99953.09
2024-02-19T07:43:00.328Z,99953.93
2024-02-19T07:45:32.523Z,99951.23
2024-02-19T07:48:07.507Z,99953.14
2024-02-19T07:50:40.012Z,99953.07
2024-02-19T07:53:14.396Z,99948.65
2024-02-19T07:55:48.114Z,99949.05
2024-02-19T07:58:21.892Z,99939.60
2024-02-19T08:00:54.248Z,99933.71
2024-02-19T08:03:26.474Z,99935.92
2024-02-19T08:05:58.660Z,99937.05
2024-02-19T08:08:32.282Z,99929.94
2024-02-19T08:11:04.711Z,99923.71
2024-02-19T08:13:37.201Z,99929.30
2024-02-19T08:16:11.357Z,99925.93
2024-02-19T08:18:44.397Z,99922.90
2024-02-19T08:21:17.917Z,99918.52
2024-02-19T08:23:50.420Z,99920.77
2024-02-19T08:26:22.545Z,99913.09
2024-02-19T08:28:54.754Z,99917.02
2024-02-19T08:31:28.834Z,99912.77
2024-02-19T08:34:01.357Z,99912.18
2024-02-19T08:36:34.504Z,99913.54
2024-02-19T08:39:06.967Z,99908.73
2024-02-19T08:41:39.226Z,99904.58
2024-02-19T08:44:12.499Z,99912.80
2024-02-19T08:46:44.951Z,99910.17
2024-02-19T08:49:17.405Z,99905.66
2024-02-19T08:51:49.797Z,99900.45
2024-02-19T08:54:22.094Z,99898.98
2024-02-19T08:56:54.081Z,99903.71
2024-02-19T08:59:29.883Z,99904.55
2024-02-19T09:02:03.298Z,99906.77
2024-02-19T09:04:35.686Z,99899.44
2024-02-19T09:07:09.046Z,99898.25
2024-02-19T09:09:41.568Z,99897.96
2024-02-19T09:12:14.388Z,99897.98
2024-02-19T09:14:46.610Z,99894.29
2024-02-19T09:17:18.908Z,99901.61
2024-02-19T09:19:51.057Z,99896.27
2024-02-19T09:22:23.863Z,99890.46
2024-02-19T09:24:57.377Z,99888.31
2024-02-19T09:27:29.721Z,99881.66
2024-02-19T09:30:01.877Z,99878.90
2024-02-19T09:32:34.228Z,99876.86
2024-02-19T09:35:07.994Z,99883.52
2024-02-19T09:37:40.232Z,99876.58
2024-02-19T09:40:16.416Z,99878.95
2024-02-19T09:42:48.975Z,99877.77
2024-02-19T09:45:22.571Z,99878.33
2024-02-19T09:48:00.824Z,99873.95
2024-02-19T09:50:33.719Z,99876.68
2024-02-19T09:53:11.726Z,99874.88
2024-02-19T09:55:44.435Z,99877.44
2024-02-19T09:58:17.133Z,99878.93
2024-02-19T10:00:49.961Z,99878.00
2024-02-19T10:03:24.236Z,99885.55
2024-02-19T10:05:56.536Z,99885.08
2024-02-19T10:08:29.054Z,99880.45
2024-02-19T10:11:09.409Z,99877.55
2024-02-19T10:13:43.753Z,99878.61
2024-02-19T10:16:15.958Z,99872.69
2024-02-19T10:18:48.371Z,99873.59
2024-02-19T10:21:21.063Z,99872.24
2024-02-19T10:23:53.294Z,99869.55
2024-02-19T10:26:25.785Z,99870.59
2024-02-19T10:28:58.994Z,99862.71
2024-02-19T10:31:32.822Z,99859.23
2024-02-19T10:34:05.218Z,99863.76
2024-02-19T10:36:37.769Z,99865.30
2024-02-19T10:39:11.093Z,99864.05
2024-02-19T10:41:43.343Z,99865.73
2024-02-19T10:44:17.440Z,99863.30
2024-02-19T10:46:50.097Z,99866.33
2024-02-19T10:49:22.533Z,99859.83
2024-02-19T10:51:54.919Z,99856.86
2024-02-19T10:54:29.395Z,99857.16
2024-02-19T10:57:10.004Z,99845.78
2024-02-19T10:59:44.357Z,99845.82
2024-02-19T11:02:23.102Z,99842.91
2024-02-19T11:04:55.654Z,99840.34
2024-02-19T11:07:32.906Z,99842.66
2024-02-19T11:10:06.794Z,99843.84
2024-02-19T11:12:39.868Z,99834.58
2024-02-19T11:15:21.702Z,99835.92
2024-02-19T11:17:59.593Z,99842.55
2024-02-19T11:20:31.921Z,99844.85
2024-02-19T11:23:04.118Z,99845.94
2024-02-19T11:25:36.762Z,99846.34
2024-02-19T11:28:09.744Z,99850.98
2024-02-19T11:30:42.346Z,99852.56
2024-02-19T11:33:16.277Z,99853.97
2024-02-19T11:35:48.466Z,99853.11
2024-02-19T11:38:20.959Z,99851.92
2024-02-19T11:40:55.618Z,99850.52
2024-02-19T11:43:29.427Z,99847.10
2024-02-19T11:46:01.839Z,99847.00
2024-02-19T11:48:36.283Z,99855.27
2024-02-19T11:51:09.095Z,99851.05
2024-02-19T11:53:41.668Z,99860.64
2024-02-19T11:56:13.888Z,99856.42
2024-02-19T11:58:46.322Z,99858.29
2024-02-19T12:01:22.593Z,99854.60
2024-02-19T12:03:55.265Z,99854.48
2024-02-19T12:06:27.853Z,99865.08
2024-02-19T12:09:00.048Z,99866.53
2024-02-19T12:11:35.251Z,99868.44
2024-02-19T12:14:09.350Z,99868.77
2024-02-19T12:16:41.672Z,99871.55
2024-02-19T12:19:13.949Z,99878.77
2024-02-19T12:21:46.412Z,99873.95
2024-02-19T12:24:18.720Z,99878.23
2024-02-19T12:26:50.931Z,99877.73
2024-02-19T12:29:23.183Z,99878.58
2024-02-19T12:31:55.427Z,99876.73
2024-02-19T12:34:29.860Z,99881.85
2024-02-19T12:37:02.253Z,99879.23
2024-02-19T12:39:34.682Z,99878.45
2024-02-19T12:42:11.279Z,99877.05
2024-02-19T12:44:43.876Z,99881.55
2024-02-19T12:47:16.169Z,99882.98
2024-02-19T12:49:48.494Z,99882.71
2024-02-19T12:52:28.852Z,99882.70
2024-02-19T12:55:01.388Z,99889.27
2024-02-19T12:57:33.720Z,99892.75
2024-02-19T13:00:08.744Z,99893.79
2024-02-19T13:02:41.181Z,99896.51
2024-02-19T13:05:13.615Z,99893.65
2024-02-19T13:07:49.260Z,99897.27
2024-02-19T13:10:22.111Z,99897.92
2024-02-19T13:12:54.389Z,99902.61
2024-02-19T13:15:26.679Z,99904.06
2024-02-19T13:17:59.110Z,99905.02
2024-02-19T13:20:31.348Z,99906.05
2024-02-19T13:23:03.685Z,99910.77
2024-02-19T13:25:35.937Z,99912.05
2024-02-19T13:28:11.587Z,99909.16
2024-02-19T13:30:45.087Z,99916.06
2024-02-19T13:33:17.689Z,99921.34
2024-02-19T13:35:50.114Z,99923.56
2024-02-19T13:38:23.159Z,99921.34
2024-02-19T13:40:57.013Z,99923.36
2024-02-19T13:43:29.527Z,99926.04
2024-02-19T13:46:05.523Z,99927.39
2024-02-19T13:48:39.392Z,99928.24
2024-02-19T13:51:11.763Z,99932.36
2024-02-19T13:53:44.557Z,99929.42
2024-02-19T13:56:16.981Z,99932.45
2024-02-19T13:58:49.323Z,99927.06
2024-02-19T14:01:21.627Z,99928.04
2024-02-19T14:03:54.079Z,99926.27
2024-02-19T14:06:26.434Z,99934.12
2024-02-19T14:08:58.684Z,99934.89
2024-02-19T14:11:31.303Z,99939.79
2024-02-19T14:14:04.894Z,99939.49
2024-02-19T14:16:37.408Z,99940.16
2024-02-19T14:19:11.439Z,99941.73
2024-02-19T14:21:44.005Z,99945.56
2024-02-19T14:24:17.052Z,99950.42
2024-02-19T14:26:49.615Z,99961.56
2024-02-19T14:29:21.926Z,99967.53
2024-02-19T14:31:54.024Z,99973.67
2024-02-19T14:34:28.735Z,99982.88
2024-02-19T14:37:01.641Z,99982.03
2024-02-19T14:39:34.138Z,99983.77
2024-02-19T14:42:06.923Z,99984.75
2024-02-19T14:44:39.242Z,99991.25
2024-02-19T14:47:12.203Z,100000.70
2024-02-19T14:49:44.669Z,100004.89
2024-02-19T14:52:17.111Z,100007.39
2024-02-19T14:54:49.339Z,100011.82
2024-02-19T14:57:21.699Z,100011.52
2024-02-19T14:59:54.216Z,100010.55
2024-02-19T15:02:26.822Z,100009.98
2024-02-19T15:04:59.363Z,100012.90
2024-02-19T15:07:32.056Z,100014.73
2024-02-19T15:10:08.278Z,100015.08
2024-02-19T15:12:40.678Z,100018.77
2024-02-19T15:15:16.649Z,100019.70
2024-02-19T15:17:49.651Z,100021.92
2024-02-19T15:20:22.906Z,100028.30
2024-02-19T15:22:55.410Z,100034.69
2024-02-19T15:25:27.587Z,100039.94
2024-02-19T15:27:59.819Z,100036.91
2024-02-19T15:30:32.522Z,100041.97
2024-02-19T15:33:04.896Z,100044.27
2024-02-19T15:35:37.103Z,100044.79
2024-02-19T15:38:10.362Z,100046.18
2024-02-19T15:40:45.135Z,100046.36
2024-02-19T15:43:17.247Z,100047.96
2024-02-19T15:45:49.770Z,100048.34
2024-02-19T15:48:21.938Z,100052.52
2024-02-19T15:50:54.530Z,100050.55
2024-02-19T15:53:29.221Z,100050.31
2024-02-19T15:56:01.892Z,100054.54
2024-02-19T15:58:35.565Z,100055.40
2024-02-19T16:01:08.985Z,100053.98
2024-02-19T16:03:41.526Z,100053.14
2024-02-19T16:06:14.184Z,100055.63
2024-02-19T16:08:46.675Z,100060.96
2024-02-19T16:11:19.788Z,100057.55
2024-02-19T16:13:52.526Z,100061.46
2024-02-19T16:16:24.937Z,100069.39
2024-02-19T16:18:58.001Z,100076.45
2024-02-19T16:21:30.490Z,100077.00
2024-02-19T16:24:02.689Z,100073.04
2024-02-19T16:26:34.956Z,100074.48
2024-02-19T16:29:07.129Z,100074.84
2024-02-19T16:31:40.270Z,100081.98
2024-02-19T16:34:13.438Z,100086.40
2024-02-19T16:36:45.914Z,100091.05
2024-02-19T16:39:18.243Z,100091.17
2024-02-19T16:41:50.458Z,100098.34
2024-02-19T16:44:22.626Z,100101.40
2024-02-19T16:46:54.837Z,100103.62
2024-02-19T16:49:27.079Z,100111.25
2024-02-19T16:51:59.697Z,100112.39
2024-02-19T16:54:31.949Z,100115.03
2024-02-19T16:57:04.399Z,100122.04
2024-02-19T16:59:37.698Z,100123.50
2024-02-19T17:02:10.012Z,100125.20
2024-02-19T17:04:42.761Z,100127.52
2024-02-19T17:07:17.442Z,100128.87
2024-02-19T17:09:50.036Z,100134.16
2024-02-19T17:12:22.255Z,100139.14
2024-02-19T17:14:55.100Z,100138.47
2024-02-19T17:17:27.941Z,100142.75
2024-02-19T17:20:00.724Z,100145.86
2024-02-19T17:22:33.113Z,100145.73
2024-02-19T17:25:05.956Z,100148.46
2024-02-19T17:27:38.421Z,100147.55
2024-02-19T17:30:13.068Z,100148.88
2024-02-19T17:32:46.440Z,100152.02
2024-02-19T17:35:19.016Z,100150.77
2024-02-19T17:37:51.447Z,100155.61
2024-02-19T17:40:25.037Z,100155.40
2024-02-19T17:42:57.376Z,100158.88
2024-02-19T17:45:29.613Z,100159.40
2024-02-19T17:48:02.044Z,100158.20
2024-02-19T17:50:37.100Z,100161.13
2024-02-19T17:53:09.407Z,100163.15
2024-02-19T17:55:41.824Z,100166.23
2024-02-19T17:58:14.522Z,100165.67
2024-02-19T18:00:46.820Z,100167.10
2024-02-19T18:03:19.768Z,100167.42
2024-02-19T18:05:51.952Z,100166.73
2024-02-19T18:08:24.080Z,100164.80
2024-02-19T18:10:56.429Z,100169.73
2024-02-19T18:13:28.799Z,100168.71
2024-02-19T18:16:01.081Z,100165.42
2024-02-19T18:18:33.356Z,100167.66
2024-02-19T18:21:05.954Z,100164.03
2024-02-19T18:23:38.134Z,100161.34
2024-02-19T18:26:10.484Z,100160.65
2024-02-19T18:28:42.720Z,100163.35
2024-02-19T18:31:15.259Z,100167.80
2024-02-19T18:33:47.603Z,100166.48
2024-02-19T18:36:19.850Z,100165.71
2024-02-19T18:38:52.056Z,100162.96
2024-02-19T18:41:24.251Z,100161.23
2024-02-19T18:43:57.922Z,100155.73
2024-02-19T18:46:30.138Z,100156.49
2024-02-19T18:49:02.728Z,100153.98
2024-02-19T18:51:37.280Z,100155.91
2024-02-19T18:54:09.925Z,100159.33
2024-02-19T18:56:42.339Z,100157.36
2024-02-19T18:59:14.592Z,100155.90
2024-02-19T19:01:46.939Z,100153.46
2024-02-19T19:04:19.653Z,100153.73
2024-02-19T19:06:52.084Z,100154.21
2024-02-19T19:09:24.571Z,100158.77
2024-02-19T19:11:57.734Z,100157.38
2024-02-19T19:14:30.284Z,100159.06
2024-02-19T19:17:05.142Z,100161.27
2024-02-19T19:19:41.535Z,100162.84
2024-02-19T19:22:16.364Z,100164.98
2024-02-19T19:24:49.837Z,100162.16
2024-02-19T19:27:23.092Z,100162.35
2024-02-19T19:29:55.229Z,100168.12
2024-02-19T19:32:29.946Z,100167.84
2024-02-19T19:35:02.566Z,100167.85
2024-02-19T19:37:35.064Z,100167.48
2024-02-19T19:40:11.168Z,100165.70
2024-02-19T19:42:47.670Z,100164.86
2024-02-19T19:45:21.938Z,100164.92
2024-02-19T19:47:54.379Z,100165.80
2024-02-19T19:50:28.163Z,100161.48
2024-02-19T19:53:01.405Z,100165.91
2024-02-19T19:55:35.242Z,100163.16
2024-02-19T19:58:16.991Z,100165.05
2024-02-19T20:00:52.087Z,100168.15
2024-02-19T20:03:24.788Z,100170.39
2024-02-19T20:05:58.352Z,100172.61
2024-02-19T20:08:32.666Z,100171.42
2024-02-19T20:11:05.241Z,100173.18
2024-02-19T20:13:37.639Z,100176.30
2024-02-19T20:16:10.660Z,100178.38
2024-02-19T20:18:42.916Z,100181.53
2024-02-19T20:21:22.009Z,100185.88
2024-02-19T20:23:54.891Z,100186.69
2024-02-19T20:26:27.232Z,100184.95
2024-02-19T20:28:59.406Z,100189.46
2024-02-19T20:31:32.556Z,100185.71
2024-02-19T20:34:05.119Z,100188.14
2024-02-19T20:36:38.860Z,100188.71
2024-02-19T20:39:15.457Z,100191.19
2024-02-19T20:41:47.703Z,100195.68
2024-02-19T20:44:20.002Z,100197.63
2024-02-19T20:46:52.283Z,100200.15
2024-02-19T20:49:24.481Z,100201.09
2024-02-19T20:51:56.804Z,100208.00
2024-02-19T20:54:30.304Z,100213.62
2024-02-19T20:57:02.670Z,100207.52
2024-02-19T20:59:35.072Z,100209.66
2024-02-19T21:02:08.188Z,100208.36
2024-02-19T21:04:40.401Z,100207.58
2024-02-19T21:07:12.662Z,100205.38
2024-02-19T21:09:44.831Z,100202.73
2024-02-19T21:12:17.029Z,100207.54
2024-02-19T21:14:49.093Z,100204.48
2024-02-19T21:17:21.169Z,100205.82
2024-02-19T21:19:54.627Z,100209.54
2024-02-19T21:22:29.024Z,100212.08
2024-02-19T21:25:02.577Z,100212.34
2024-02-19T21:27:34.950Z,100209.64
2024-02-19T21:30:10.270Z,100214.90
2024-02-19T21:32:42.652Z,100215.11
2024-02-19T21:35:18.560Z,100221.38
2024-02-19T21:37:51.487Z,100218.21
2024-02-19T21:40:24.983Z,100220.86
2024-02-19T21:42:57.069Z,100223.08
2024-02-19T21:45:29.165Z,100223.23
2024-02-19T21:48:01.560Z,100229.60
2024-02-19T21:50:33.669Z,100227.98
2024-02-19T21:53:05.938Z,100222.55
2024-02-19T21:55:37.985Z,100223.77
2024-02-19T21:58:10.405Z,100224.30
2024-02-19T22:00:43.471Z,100225.54
2024-02-19T22:03:15.866Z,100228.64
2024-02-19T22:05:48.032Z,100227.75
2024-02-19T22:08:20.194Z,100228.79
2024-02-19T22:10:52.536Z,100220.29
2024-02-19T22:13:24.787Z,100225.23
2024-02-19T22:15:57.273Z,100228.19
2024-02-19T22:18:29.789Z,100223.87
2024-02-19T22:21:02.079Z,100225.16
2024-02-19T22:23:34.297Z,100226.17
2024-02-19T22:26:06.706Z,100223.17
2024-02-19T22:28:38.855Z,100223.02
2024-02-19T22:31:10.921Z,100224.16
2024-02-19T22:33:43.091Z,100225.66
2024-02-19T22:36:15.429Z,100229.08
2024-02-19T22:38:47.478Z,100227.07
2024-02-19T22:41:19.987Z,100228.31
2024-02-19T22:43:52.286Z,100231.81
2024-02-19T22:46:24.607Z,100228.29
2024-02-19T22:48:58.072Z,100230.81
2024-02-19T22:51:30.413Z,100230.72
2024-02-19T22:54:02.676Z,100231.98
2024-02-19T22:56:35.222Z,100227.95
2024-02-19T22:59:14.627Z,100225.91
2024-02-19T23:01:53.840Z,100223.43
2024-02-19T23:04:26.189Z,100225.73
2024-02-19T23:06:58.828Z,100225.92
2024-02-19T23:09:31.175Z,100228.44
2024-02-19T23:12:03.447Z,100230.95
2024-02-19T23:14:35.742Z,100228.01
2024-02-19T23:17:08.131Z,100230.55
2024-02-19T23:19:40.390Z,100233.42
2024-02-19T23:22:13.834Z,100229.31
2024-02-19T23:24:46.020Z,100226.79
2024-02-19T23:27:18.153Z,100226.78
2024-02-19T23:29:50.481Z,100222.48
2024-02-19T23:32:22.796Z,100219.25
2024-02-19T23:35:12.750Z,100218.85
2024-02-19T23:37:44.947Z,100215.64
2024-02-19T23:40:19.756Z,100210.87
2024-02-19T23:42:52.009Z,100205.75
2024-02-19T23:45:24.389Z,100205.45
2024-02-19T23:47:56.780Z,100205.70
2024-02-19T23:50:29.639Z,100207.81
2024-02-19T23:53:01.772Z,100205.08
2024-02-19T23:55:33.978Z,100205.02
2024-02-19T23:58:06.509Z,100208.55
